createdAt,value
2023-01-25T00:02:07.962Z,5.40
2023-01-25T00:07:13.335Z,4.90
2023-01-25T00:12:18.672Z,3.23
2023-01-25T00:17:24.094Z,4.63
2023-01-25T00:22:29.514Z,3.60
2023-01-25T00:27:34.972Z,4.33
2023-01-25T00:32:52.055Z,3.73
2023-01-25T00:37:57.430Z,5.33
2023-01-25T00:43:02.882Z,4.83
2023-01-25T00:48:08.497Z,3.60
2023-01-25T00:53:14.245Z,4.67
2023-01-25T00:58:19.772Z,4.90
2023-01-25T01:03:25.660Z,7.30
2023-01-25T01:08:31.983Z,5.17
2023-01-25T01:13:37.654Z,4.77
2023-01-25T01:18:46.036Z,4.47
2023-01-25T01:23:51.472Z,4.80
2023-01-25T01:28:56.893Z,5.27
2023-01-25T01:34:02.390Z,4.83
2023-01-25T01:44:56.258Z,4.57
2023-01-25T01:50:04.765Z,4.93
2023-01-25T01:55:18.424Z,5.40
2023-01-25T02:00:32.648Z,6.40
2023-01-25T02:05:49.947Z,4.27
2023-01-25T02:10:55.760Z,5.17
2023-01-25T02:16:01.506Z,4.00
2023-01-25T02:21:07.126Z,4.10
2023-01-25T02:26:13.243Z,4.20
2023-01-25T02:31:19.456Z,4.97
2023-01-25T02:36:30.967Z,5.67
2023-01-25T02:41:39.179Z,5.80
2023-01-25T02:46:51.285Z,5.37
2023-01-25T02:51:57.660Z,6.00
2023-01-25T02:57:03.505Z,4.87
2023-01-25T03:02:09.085Z,5.47
2023-01-25T03:07:14.797Z,5.47
2023-01-25T03:12:20.242Z,6.87
2023-01-25T03:17:25.692Z,4.87
2023-01-25T03:22:31.065Z,5.13
2023-01-25T03:27:36.461Z,5.17
2023-01-25T03:32:41.876Z,5.83
2023-01-25T03:37:47.346Z,4.67
2023-01-25T03:42:53.853Z,5.20
2023-01-25T03:47:59.190Z,3.67
2023-01-25T03:53:06.262Z,5.37
2023-01-25T03:58:11.835Z,4.07
2023-01-25T04:03:19.642Z,4.00
2023-01-25T04:08:25.809Z,4.33
2023-01-25T04:13:31.533Z,5.17
2023-01-25T04:18:36.846Z,3.37
2023-01-25T04:23:42.244Z,3.63
2023-01-25T04:28:47.758Z,3.03
2023-01-25T04:33:53.100Z,2.73
2023-01-25T04:38:58.550Z,2.57
2023-01-25T04:44:04.112Z,3.90
2023-01-25T04:49:09.533Z,4.37
2023-01-25T04:54:14.980Z,3.43
2023-01-25T04:59:20.652Z,3.83
2023-01-25T05:04:25.984Z,4.37
2023-01-25T05:09:31.440Z,4.73
2023-01-25T05:14:36.817Z,2.77
2023-01-25T05:19:44.376Z,4.63
2023-01-25T05:25:20.708Z,4.43
2023-01-25T05:30:22.883Z,4.23
2023-01-25T05:35:28.187Z,4.40
2023-01-25T05:40:33.396Z,6.70
2023-01-25T05:45:38.811Z,3.57
2023-01-25T05:50:44.333Z,2.97
2023-01-25T05:55:49.835Z,3.23
2023-01-25T06:00:55.286Z,3.60
2023-01-25T06:06:02.992Z,3.20
2023-01-25T06:11:12.724Z,3.63
2023-01-25T06:16:19.161Z,4.20
2023-01-25T06:21:24.549Z,3.60
2023-01-25T06:26:29.857Z,2.97
2023-01-25T06:31:35.400Z,4.23
2023-01-25T06:36:40.803Z,2.83
2023-01-25T06:41:46.086Z,2.87
2023-01-25T06:46:51.392Z,3.57
2023-01-25T06:51:58.181Z,2.63
2023-01-25T06:57:04.158Z,2.60
2023-01-25T07:02:15.803Z,2.90
2023-01-25T07:07:21.309Z,3.23
2023-01-25T07:12:26.829Z,2.53
2023-01-25T07:17:32.198Z,1.93
2023-01-25T07:22:37.422Z,2.50
2023-01-25T07:27:42.693Z,2.53
2023-01-25T07:32:48.037Z,1.93
2023-01-25T07:37:53.295Z,2.90
2023-01-25T07:42:59.117Z,3.27
2023-01-25T07:48:07.434Z,2.73
2023-01-25T07:53:13.143Z,2.37
2023-01-25T07:58:18.676Z,2.70
2023-01-25T08:03:24.110Z,3.37
2023-01-25T08:08:29.732Z,4.50
2023-01-25T08:13:35.001Z,2.67
2023-01-25T08:18:40.280Z,2.70
2023-01-25T08:23:45.662Z,3.10
2023-01-25T08:28:52.604Z,2.00
2023-01-25T08:33:58.430Z,2.07
2023-01-25T08:39:06.683Z,3.63
2023-01-25T08:44:11.895Z,2.40
2023-01-25T08:49:17.279Z,2.77
2023-01-25T08:54:22.503Z,2.73
2023-01-25T08:59:28.001Z,3.23
2023-01-25T09:04:33.419Z,3.27
2023-01-25T09:09:39.063Z,2.67
2023-01-25T09:14:44.469Z,4.43
2023-01-25T09:24:56.559Z,3.67
2023-01-25T09:30:13.682Z,2.77
2023-01-25T09:35:08.880Z,2.97
2023-01-25T09:40:22.735Z,3.80
2023-01-25T09:45:37.981Z,3.00
2023-01-25T09:50:55.062Z,3.20
2023-01-25T09:56:03.579Z,4.20
2023-01-25T10:01:36.557Z,3.27
2023-01-25T10:06:40.608Z,5.80
2023-01-25T10:11:46.677Z,5.37
2023-01-25T10:17:03.791Z,3.63
2023-01-25T10:22:14.645Z,3.67
2023-01-25T10:27:31.767Z,2.63
2023-01-25T10:32:41.921Z,3.33
2023-01-25T10:37:44.676Z,3.60
2023-01-25T10:43:04.561Z,3.73
2023-01-25T10:48:12.529Z,3.80
2023-01-25T10:53:32.513Z,3.63
2023-01-25T10:58:47.522Z,4.60
2023-01-25T11:03:53.716Z,8.03
2023-01-25T11:08:59.301Z,3.27
2023-01-25T11:14:18.920Z,4.73
2023-01-25T11:19:41.163Z,4.47
2023-01-25T11:24:46.676Z,3.50
2023-01-25T11:30:21.629Z,4.73
2023-01-25T11:35:29.730Z,4.07
2023-01-25T11:40:50.059Z,3.77
2023-01-25T11:46:04.194Z,5.07
2023-01-25T11:51:30.570Z,4.17
2023-01-25T11:56:44.773Z,4.77
2023-01-25T12:01:58.610Z,4.97
2023-01-25T12:07:06.603Z,4.80
2023-01-25T12:12:27.399Z,3.73
2023-01-25T12:17:47.390Z,4.67
2023-01-25T12:23:01.282Z,4.43
2023-01-25T12:28:15.135Z,5.30
2023-01-25T12:33:32.455Z,5.60
2023-01-25T12:38:55.368Z,2.97
2023-01-25T12:44:18.727Z,5.00
2023-01-25T12:49:53.773Z,5.33
2023-01-25T12:55:05.034Z,5.67
2023-01-25T13:00:19.804Z,5.27
2023-01-25T13:05:48.700Z,5.67
2023-01-25T13:11:13.289Z,5.30
2023-01-25T13:16:35.845Z,4.80
2023-01-25T13:21:45.186Z,5.00
2023-01-25T13:26:53.507Z,6.33
2023-01-25T13:31:59.947Z,6.30
2023-01-25T13:37:24.661Z,6.17
2023-01-25T13:42:31.974Z,5.60
2023-01-25T13:47:38.868Z,5.63
2023-01-25T13:52:58.500Z,5.33
2023-01-25T13:58:32.647Z,6.20
2023-01-25T14:03:48.701Z,6.60
2023-01-25T14:08:56.724Z,4.57
2023-01-25T14:14:04.503Z,4.47
2023-01-25T14:19:25.725Z,4.90
2023-01-25T14:24:31.628Z,5.00
2023-01-25T14:34:44.380Z,5.20
2023-01-25T14:39:52.230Z,5.43
2023-01-25T14:44:58.007Z,3.97
2023-01-25T14:50:39.003Z,5.00
2023-01-25T14:55:50.299Z,4.20
2023-01-25T15:00:57.655Z,4.47
2023-01-25T15:06:05.453Z,5.33
2023-01-25T15:11:38.990Z,5.87
2023-01-25T15:16:45.883Z,5.33
2023-01-25T15:21:51.201Z,4.47
2023-01-25T15:26:57.259Z,5.57
2023-01-25T15:32:02.552Z,3.27
2023-01-25T15:37:09.591Z,5.07
2023-01-25T15:42:14.911Z,4.67
2023-01-25T15:47:20.230Z,4.50
2023-01-25T15:52:25.374Z,5.87
2023-01-25T15:57:34.078Z,7.00
2023-01-25T16:02:39.281Z,5.67
2023-01-25T16:07:46.177Z,5.37
2023-01-25T16:12:51.835Z,5.13
2023-01-25T16:17:57.695Z,5.13
2023-01-25T16:23:02.845Z,6.63
2023-01-25T16:28:13.626Z,3.97
2023-01-25T16:33:20.449Z,3.27
2023-01-25T16:38:25.731Z,4.37
2023-01-25T16:43:42.038Z,4.93
2023-01-25T16:48:37.678Z,7.00
2023-01-25T16:53:42.991Z,5.43
2023-01-25T16:58:49.054Z,6.30
2023-01-25T17:03:56.172Z,5.57
2023-01-25T17:09:12.611Z,5.53
2023-01-25T17:14:16.924Z,6.10
2023-01-25T17:19:22.810Z,6.50
2023-01-25T17:24:29.158Z,6.10
2023-01-25T17:29:34.440Z,5.40
2023-01-25T17:34:39.738Z,4.10
2023-01-25T17:39:44.972Z,6.07
2023-01-25T17:44:50.569Z,6.10
2023-01-25T17:49:55.979Z,7.37
2023-01-25T17:55:01.257Z,5.40
2023-01-25T18:00:08.178Z,7.00
2023-01-25T18:05:14.682Z,4.97
2023-01-25T18:10:20.082Z,5.33
2023-01-25T18:15:25.422Z,6.13
2023-01-25T18:20:31.575Z,5.80
2023-01-25T18:25:40.509Z,4.73
2023-01-25T18:30:50.702Z,5.03
2023-01-25T18:35:58.334Z,7.67
2023-01-25T18:41:05.477Z,6.37
2023-01-25T18:46:11.725Z,5.80
2023-01-25T18:51:18.142Z,9.10
2023-01-25T18:56:23.644Z,6.37
2023-01-25T19:01:31.427Z,8.50
2023-01-25T19:06:36.744Z,4.93
2023-01-25T19:11:41.896Z,5.73
2023-01-25T19:16:47.315Z,7.67
2023-01-25T19:21:52.532Z,5.83
2023-01-25T19:26:58.020Z,4.77
2023-01-25T19:32:03.679Z,5.97
2023-01-25T19:37:08.948Z,5.53
2023-01-25T19:42:18.537Z,5.70
2023-01-25T19:47:26.592Z,5.50
2023-01-25T19:52:31.869Z,5.50
2023-01-25T19:57:38.367Z,6.90
2023-01-25T20:02:43.715Z,6.57
2023-01-25T20:07:49.309Z,5.40
2023-01-25T20:12:54.604Z,6.13
2023-01-25T20:17:59.920Z,6.67
2023-01-25T20:23:06.927Z,4.73
2023-01-25T20:28:12.239Z,7.63
2023-01-25T20:33:18.788Z,6.07
2023-01-25T20:38:24.010Z,6.17
2023-01-25T20:43:29.994Z,6.63
2023-01-25T20:48:36.659Z,6.87
2023-01-25T20:53:42.801Z,5.47
2023-01-25T20:58:52.202Z,7.73
2023-01-25T21:03:58.991Z,6.90
2023-01-25T21:09:05.398Z,6.87
2023-01-25T21:14:10.675Z,7.07
2023-01-25T21:19:15.973Z,9.00
2023-01-25T21:24:21.511Z,7.40
2023-01-25T21:29:26.863Z,9.33
2023-01-25T21:34:33.724Z,9.23
2023-01-25T21:39:39.060Z,8.07
2023-01-25T21:45:01.910Z,7.63
2023-01-25T21:50:25.287Z,5.10
2023-01-25T21:55:30.413Z,7.23
2023-01-25T22:00:36.336Z,5.83
2023-01-25T22:05:41.544Z,6.67
2023-01-25T22:10:46.800Z,5.50
2023-01-25T22:15:51.997Z,7.33
2023-01-25T22:21:01.441Z,7.73
2023-01-25T22:26:09.263Z,5.57
2023-01-25T22:31:20.555Z,6.97
2023-01-25T22:36:27.611Z,8.13
2023-01-25T22:41:35.104Z,7.50
2023-01-25T22:46:40.352Z,6.70
2023-01-25T22:51:46.031Z,7.63
2023-01-25T22:56:51.348Z,6.63
2023-01-25T23:01:56.660Z,5.87
2023-01-25T23:07:06.403Z,6.47
2023-01-25T23:12:11.630Z,8.17
2023-01-25T23:17:34.826Z,7.33
2023-01-25T23:22:40.367Z,7.53
2023-01-25T23:27:48.128Z,6.77
2023-01-25T23:32:53.350Z,7.67
2023-01-25T23:37:58.670Z,5.70
2023-01-25T23:43:03.891Z,6.90
2023-01-25T23:48:09.193Z,7.80
2023-01-25T23:53:14.504Z,6.83
2023-01-25T23:58:19.987Z,6.33
